createdAt,value
2018-05-09T00:00:27.706Z,17.30
2018-05-09T00:02:53.936Z,17.20
2018-05-09T00:05:20.162Z,16.90
2018-05-09T00:07:46.303Z,16.80
2018-05-09T00:10:12.482Z,16.90
2018-05-09T00:12:39.447Z,16.60
2018-05-09T00:15:05.725Z,16.50
2018-05-09T00:17:31.964Z,16.60
2018-05-09T00:19:58.163Z,16.70
2018-05-09T00:22:24.419Z,16.80
2018-05-09T00:24:50.604Z,16.80
2018-05-09T00:27:16.804Z,16.90
2018-05-09T00:29:43.765Z,16.80
2018-05-09T00:32:09.979Z,16.80
2018-05-09T00:34:36.932Z,16.80
2018-05-09T00:37:03.216Z,16.70
2018-05-09T00:39:29.452Z,16.70
2018-05-09T00:41:55.698Z,16.80
2018-05-09T00:44:22.645Z,16.80
2018-05-09T00:46:49.620Z,16.70
2018-05-09T00:49:15.869Z,16.70
2018-05-09T00:51:42.061Z,16.70
2018-05-09T00:54:20.567Z,16.70
2018-05-09T00:56:47.531Z,16.60
2018-05-09T00:59:13.751Z,16.60
2018-05-09T01:01:39.973Z,16.60
2018-05-09T01:04:06.282Z,16.50
2018-05-09T01:06:32.528Z,16.50
2018-05-09T01:08:59.503Z,16.40
2018-05-09T01:11:25.759Z,16.40
2018-05-09T01:13:51.955Z,16.20
2018-05-09T01:16:18.214Z,16.30
2018-05-09T01:18:44.448Z,16.00
2018-05-09T01:21:10.648Z,15.80
2018-05-09T01:23:36.904Z,15.80
2018-05-09T01:26:03.157Z,15.70
2018-05-09T01:28:29.383Z,15.70
2018-05-09T01:30:55.609Z,15.70
2018-05-09T01:33:21.884Z,15.40
2018-05-09T01:35:48.118Z,15.60
2018-05-09T01:38:14.304Z,15.70
2018-05-09T01:40:41.292Z,15.60
2018-05-09T01:43:07.516Z,15.60
2018-05-09T01:45:33.792Z,15.40
2018-05-09T01:48:00.030Z,15.40
2018-05-09T01:50:27.003Z,15.60
2018-05-09T01:52:53.242Z,15.50
2018-05-09T01:55:19.454Z,15.70
2018-05-09T01:57:45.659Z,15.70
2018-05-09T02:00:11.890Z,15.70
2018-05-09T02:02:38.062Z,15.70
2018-05-09T02:05:04.280Z,15.20
2018-05-09T02:07:30.490Z,15.20
2018-05-09T02:09:56.719Z,15.30
2018-05-09T02:12:22.927Z,15.40
2018-05-09T02:14:49.879Z,15.50
2018-05-09T02:17:16.903Z,15.40
2018-05-09T02:19:43.120Z,15.40
2018-05-09T02:22:09.322Z,15.20
2018-05-09T02:24:35.527Z,15.30
2018-05-09T02:27:01.772Z,15.30
2018-05-09T02:29:27.999Z,15.40
2018-05-09T02:31:54.226Z,15.40
2018-05-09T02:34:20.470Z,15.40
2018-05-09T02:36:46.680Z,15.40
2018-05-09T02:39:12.929Z,15.40
2018-05-09T02:41:39.151Z,15.40
2018-05-09T02:44:05.348Z,15.30
2018-05-09T02:46:32.319Z,15.20
2018-05-09T02:48:58.545Z,15.20
2018-05-09T02:51:24.811Z,15.20
2018-05-09T02:53:51.027Z,15.10
2018-05-09T02:56:17.266Z,15.10
2018-05-09T02:58:43.505Z,15.10
2018-05-09T03:01:09.736Z,15.10
2018-05-09T03:03:36.716Z,15.00
2018-05-09T03:06:02.918Z,15.00
2018-05-09T03:08:29.888Z,15.00
2018-05-09T03:10:56.129Z,14.90
2018-05-09T03:13:22.392Z,14.90
2018-05-09T03:15:48.616Z,15.00
2018-05-09T03:18:14.869Z,14.90
2018-05-09T03:20:41.105Z,14.90
2018-05-09T03:23:08.112Z,14.90
2018-05-09T03:25:34.319Z,14.80
2018-05-09T03:28:00.534Z,14.70
2018-05-09T03:30:26.731Z,14.70
2018-05-09T03:32:53.641Z,14.20
2018-05-09T03:35:19.855Z,14.10
2018-05-09T03:37:46.086Z,14.10
2018-05-09T03:40:12.322Z,14.20
2018-05-09T03:42:38.570Z,14.30
2018-05-09T03:45:04.797Z,14.40
2018-05-09T03:47:31.771Z,14.10
2018-05-09T03:49:58.752Z,13.70
2018-05-09T03:52:24.996Z,13.60
2018-05-09T03:54:51.232Z,13.70
2018-05-09T03:57:17.402Z,13.90
2018-05-09T03:59:44.346Z,14.10
2018-05-09T04:02:22.894Z,14.10
2018-05-09T04:05:01.197Z,14.20
2018-05-09T04:10:34.448Z,14.30
2018-05-09T04:13:00.699Z,14.40
2018-05-09T04:15:27.715Z,14.30
2018-05-09T04:17:53.947Z,14.20
2018-05-09T04:20:20.197Z,14.20
2018-05-09T04:22:46.444Z,14.20
2018-05-09T04:25:13.388Z,14.20
2018-05-09T04:27:40.343Z,14.20
2018-05-09T04:30:07.282Z,14.20
2018-05-09T04:32:34.241Z,14.10
2018-05-09T04:35:00.438Z,14.10
2018-05-09T04:37:26.643Z,14.10
2018-05-09T04:39:52.899Z,14.10
2018-05-09T04:42:19.886Z,13.90
2018-05-09T04:44:46.151Z,13.80
2018-05-09T04:47:13.043Z,13.60
2018-05-09T04:49:39.317Z,13.50
2018-05-09T04:52:05.533Z,13.70
2018-05-09T04:54:31.755Z,13.40
2018-05-09T04:56:57.969Z,13.30
2018-05-09T04:59:24.154Z,13.10
2018-05-09T05:01:50.368Z,13.30
2018-05-09T05:04:16.592Z,13.30
2018-05-09T05:06:42.823Z,13.20
2018-05-09T05:09:09.059Z,13.40
2018-05-09T05:11:35.278Z,13.30
2018-05-09T05:14:01.534Z,13.30
2018-05-09T05:16:27.761Z,13.30
2018-05-09T05:18:54.727Z,13.60
2018-05-09T05:21:21.042Z,13.60
2018-05-09T05:23:47.261Z,13.80
2018-05-09T05:26:14.260Z,13.90
2018-05-09T05:28:40.479Z,13.90
2018-05-09T05:31:06.734Z,14.00
2018-05-09T05:33:32.968Z,14.00
2018-05-09T05:35:59.255Z,14.10
2018-05-09T05:38:25.505Z,14.10
2018-05-09T05:40:51.712Z,14.10
2018-05-09T05:43:17.950Z,14.20
2018-05-09T05:45:44.180Z,14.20
2018-05-09T05:48:10.387Z,14.20
2018-05-09T05:50:37.695Z,14.30
2018-05-09T05:53:03.893Z,14.30
2018-05-09T05:55:30.108Z,14.40
2018-05-09T05:57:56.287Z,14.40
2018-05-09T06:00:22.492Z,14.50
2018-05-09T06:02:48.690Z,14.50
2018-05-09T06:05:14.900Z,14.60
2018-05-09T06:07:41.149Z,14.60
2018-05-09T06:10:07.395Z,14.70
2018-05-09T06:12:33.676Z,14.70
2018-05-09T06:15:00.620Z,14.80
2018-05-09T06:17:27.536Z,14.90
2018-05-09T06:19:53.756Z,14.80
2018-05-09T06:22:20.056Z,15.00
2018-05-09T06:24:46.260Z,15.00
2018-05-09T06:27:12.475Z,15.10
2018-05-09T06:29:38.699Z,15.10
2018-05-09T06:32:05.684Z,15.20
2018-05-09T06:34:31.923Z,15.20
2018-05-09T06:36:58.171Z,15.20
2018-05-09T06:39:24.396Z,15.30
2018-05-09T06:41:50.605Z,15.30
2018-05-09T06:44:16.823Z,15.40
2018-05-09T06:46:43.037Z,15.40
2018-05-09T06:49:09.272Z,15.40
2018-05-09T06:51:35.526Z,15.40
2018-05-09T06:54:01.759Z,15.50
2018-05-09T06:56:27.951Z,15.50
2018-05-09T06:58:54.171Z,15.60
2018-05-09T07:01:20.383Z,15.60
2018-05-09T07:03:47.352Z,15.70
2018-05-09T07:06:13.624Z,15.70
2018-05-09T07:08:39.834Z,15.80
2018-05-09T07:11:06.076Z,15.90
2018-05-09T07:13:32.347Z,15.90
2018-05-09T07:15:58.536Z,16.00
2018-05-09T07:18:24.747Z,16.20
2018-05-09T07:20:50.939Z,16.20
2018-05-09T07:23:17.200Z,16.30
2018-05-09T07:25:43.351Z,16.30
2018-05-09T07:28:09.564Z,16.30
2018-05-09T07:30:35.742Z,16.40
2018-05-09T07:33:01.978Z,16.60
2018-05-09T07:35:28.209Z,16.60
2018-05-09T07:37:54.412Z,16.70
2018-05-09T07:40:21.394Z,16.90
2018-05-09T07:42:47.623Z,16.80
2018-05-09T07:45:13.855Z,16.90
2018-05-09T07:47:40.162Z,17.00
2018-05-09T07:50:06.352Z,17.10
2018-05-09T07:52:32.531Z,17.30
2018-05-09T07:54:58.774Z,17.30
2018-05-09T07:57:27.102Z,17.50
2018-05-09T07:59:54.036Z,17.60
2018-05-09T08:02:20.230Z,17.60
2018-05-09T08:04:46.431Z,17.70
2018-05-09T08:07:12.661Z,17.80
2018-05-09T08:09:38.865Z,17.90
2018-05-09T08:12:05.852Z,18.00
2018-05-09T08:14:32.056Z,18.00
2018-05-09T08:16:58.347Z,18.10
2018-05-09T08:19:24.511Z,18.20
2018-05-09T08:21:50.705Z,18.30
2018-05-09T08:24:16.948Z,18.30
2018-05-09T08:26:43.933Z,18.40
2018-05-09T08:29:10.184Z,18.30
2018-05-09T08:31:36.428Z,18.40
2018-05-09T08:34:02.640Z,18.40
2018-05-09T08:36:28.847Z,18.50
2018-05-09T08:38:55.074Z,18.50
2018-05-09T08:41:21.360Z,18.60
2018-05-09T08:43:48.348Z,18.70
2018-05-09T08:46:14.604Z,18.70
2018-05-09T08:48:40.779Z,18.80
2018-05-09T08:51:06.955Z,18.80
2018-05-09T08:53:33.160Z,18.90
2018-05-09T08:55:59.404Z,18.80
2018-05-09T08:58:25.583Z,18.80
2018-05-09T09:00:52.522Z,18.80
2018-05-09T09:03:19.512Z,18.90
2018-05-09T09:05:45.722Z,18.90
2018-05-09T09:08:11.879Z,19.00
2018-05-09T09:10:38.055Z,19.10
2018-05-09T09:13:04.336Z,19.20
2018-05-09T09:15:30.593Z,19.40
2018-05-09T09:17:56.769Z,19.50
2018-05-09T09:20:22.996Z,19.60
2018-05-09T09:22:49.217Z,19.70
2018-05-09T09:25:15.420Z,19.60
2018-05-09T09:27:41.653Z,19.50
2018-05-09T09:30:07.908Z,19.60
2018-05-09T09:32:34.107Z,19.60
2018-05-09T09:35:00.294Z,19.60
2018-05-09T09:37:26.506Z,19.70
2018-05-09T09:39:52.735Z,19.70
2018-05-09T09:42:18.968Z,19.80
2018-05-09T09:44:45.177Z,19.80
2018-05-09T09:47:11.390Z,19.80
2018-05-09T09:49:37.624Z,19.90
2018-05-09T09:52:03.896Z,19.90
2018-05-09T09:54:30.136Z,20.00
2018-05-09T09:56:57.150Z,20.40
2018-05-09T09:59:23.368Z,20.30
2018-05-09T10:01:49.566Z,20.40
2018-05-09T10:04:15.749Z,20.40
2018-05-09T10:06:42.018Z,20.50
2018-05-09T10:09:08.237Z,20.50
2018-05-09T10:11:35.202Z,20.60
2018-05-09T10:14:01.402Z,20.60
2018-05-09T10:16:28.339Z,20.60
2018-05-09T10:18:54.656Z,20.50
2018-05-09T10:21:20.823Z,20.70
2018-05-09T10:23:47.062Z,20.70
2018-05-09T10:26:13.275Z,20.80
2018-05-09T10:28:39.448Z,20.90
2018-05-09T10:31:05.683Z,20.90
2018-05-09T10:33:31.882Z,21.00
2018-05-09T10:35:58.102Z,21.00
2018-05-09T10:38:24.381Z,21.00
2018-05-09T10:40:50.585Z,20.90
2018-05-09T10:43:16.794Z,20.90
2018-05-09T10:45:43.001Z,20.90
2018-05-09T10:48:09.217Z,20.90
2018-05-09T10:50:36.166Z,21.00
2018-05-09T10:53:02.376Z,20.90
2018-05-09T10:55:29.336Z,21.10
2018-05-09T10:57:56.313Z,21.00
2018-05-09T11:00:22.531Z,21.00
2018-05-09T11:02:48.777Z,21.10
2018-05-09T11:05:15.008Z,21.20
2018-05-09T11:07:41.210Z,21.10
2018-05-09T11:10:07.443Z,21.10
2018-05-09T11:12:33.708Z,21.10
2018-05-09T11:14:59.938Z,21.00
2018-05-09T11:17:26.172Z,21.10
2018-05-09T11:19:52.374Z,21.10
2018-05-09T11:22:18.600Z,21.10
2018-05-09T11:24:44.871Z,21.20
2018-05-09T11:27:11.050Z,21.30
2018-05-09T11:29:37.250Z,21.30
2018-05-09T11:32:04.187Z,21.50
2018-05-09T11:34:31.179Z,21.60
2018-05-09T11:36:57.374Z,21.60
2018-05-09T11:39:23.590Z,21.70
2018-05-09T11:41:50.506Z,21.70
2018-05-09T11:44:16.734Z,21.60
2018-05-09T11:46:42.972Z,21.60
2018-05-09T11:49:09.945Z,21.60
2018-05-09T11:51:36.248Z,21.60
2018-05-09T11:54:03.231Z,21.70
2018-05-09T11:56:29.488Z,21.70
2018-05-09T11:58:55.724Z,21.80
2018-05-09T12:01:21.963Z,21.90
2018-05-09T12:03:48.152Z,22.00
2018-05-09T12:06:14.359Z,22.10
2018-05-09T12:08:40.590Z,22.10
2018-05-09T12:11:06.802Z,22.10
2018-05-09T12:13:33.747Z,22.30
2018-05-09T12:16:00.756Z,22.40
2018-05-09T12:18:26.965Z,22.30
2018-05-09T12:20:53.191Z,22.50
2018-05-09T12:23:19.372Z,22.60
2018-05-09T12:25:46.304Z,22.60
2018-05-09T12:28:12.504Z,22.60
2018-05-09T12:30:38.715Z,22.60
2018-05-09T12:33:04.912Z,22.60
2018-05-09T12:35:31.119Z,22.60
2018-05-09T12:37:57.323Z,22.60
2018-05-09T12:40:23.551Z,22.60
2018-05-09T12:42:49.759Z,22.80
2018-05-09T12:45:15.956Z,23.00
2018-05-09T12:47:42.205Z,22.90
2018-05-09T12:50:08.421Z,23.00
2018-05-09T12:52:34.595Z,22.90
2018-05-09T12:55:00.805Z,22.90
2018-05-09T12:57:27.024Z,22.90
2018-05-09T12:59:53.248Z,23.10
2018-05-09T13:02:19.448Z,23.20
2018-05-09T13:04:45.614Z,23.20
2018-05-09T13:07:11.905Z,23.40
2018-05-09T13:09:38.067Z,23.40
2018-05-09T13:12:04.287Z,23.30
2018-05-09T13:14:30.475Z,23.30
2018-05-09T13:16:57.446Z,23.40
2018-05-09T13:19:23.650Z,23.30
2018-05-09T13:21:50.546Z,23.60
2018-05-09T13:24:16.775Z,23.60
2018-05-09T13:26:42.991Z,23.70
2018-05-09T13:29:09.211Z,23.70
2018-05-09T13:31:35.488Z,23.60
2018-05-09T13:34:01.651Z,23.40
2018-05-09T13:36:27.885Z,23.20
2018-05-09T13:38:54.068Z,23.20
2018-05-09T13:41:20.299Z,23.10
2018-05-09T13:43:46.521Z,23.00
2018-05-09T13:46:12.820Z,22.90
2018-05-09T13:48:38.981Z,23.10
2018-05-09T13:51:05.916Z,23.30
2018-05-09T13:53:32.143Z,23.20
2018-05-09T13:55:58.356Z,23.40
2018-05-09T13:58:24.601Z,23.50
2018-05-09T14:00:50.817Z,23.70
2018-05-09T14:03:17.056Z,23.70
2018-05-09T14:05:43.248Z,23.90
2018-05-09T14:08:09.455Z,24.00
2018-05-09T14:10:35.720Z,24.10
2018-05-09T14:13:05.851Z,24.20
2018-05-09T14:15:32.117Z,24.10
2018-05-09T14:17:58.310Z,24.20
2018-05-09T14:20:24.514Z,24.30
2018-05-09T14:22:50.709Z,24.30
2018-05-09T14:25:16.928Z,24.40
2018-05-09T14:27:43.900Z,24.50
2018-05-09T14:30:10.126Z,24.50
2018-05-09T14:32:36.322Z,24.50
2018-05-09T14:35:03.314Z,24.50
2018-05-09T14:37:29.555Z,24.50
2018-05-09T14:39:55.743Z,24.50
2018-05-09T14:42:21.952Z,24.50
2018-05-09T14:44:48.197Z,24.50
2018-05-09T14:47:14.460Z,24.50
2018-05-09T14:49:40.659Z,24.50
2018-05-09T14:52:06.878Z,24.50
2018-05-09T14:54:33.183Z,24.30
2018-05-09T14:56:59.446Z,24.40
2018-05-09T14:59:25.630Z,24.40
2018-05-09T15:01:52.616Z,24.50
2018-05-09T15:04:18.824Z,24.40
2018-05-09T15:06:45.764Z,24.50
2018-05-09T15:09:12.748Z,24.50
2018-05-09T15:11:38.968Z,24.50
2018-05-09T15:14:05.234Z,24.60
2018-05-09T15:16:31.452Z,24.60
2018-05-09T15:18:57.736Z,24.50
2018-05-09T15:21:23.962Z,24.50
2018-05-09T15:23:50.203Z,24.50
2018-05-09T15:26:16.410Z,24.60
2018-05-09T15:28:43.362Z,24.60
2018-05-09T15:31:09.584Z,24.60
2018-05-09T15:33:36.536Z,24.70
2018-05-09T15:36:02.815Z,24.70
2018-05-09T15:38:29.015Z,24.80
2018-05-09T15:40:55.220Z,24.70
2018-05-09T15:43:21.415Z,24.80
2018-05-09T15:45:47.635Z,24.70
2018-05-09T15:48:13.888Z,24.80
2018-05-09T15:50:40.138Z,24.80
2018-05-09T15:53:06.353Z,24.80
2018-05-09T15:55:33.290Z,24.90
2018-05-09T15:58:00.285Z,25.00
2018-05-09T16:00:26.510Z,24.90
2018-05-09T16:02:52.757Z,25.00
2018-05-09T16:05:18.980Z,25.10
2018-05-09T16:07:45.185Z,25.10
2018-05-09T16:10:11.389Z,25.10
2018-05-09T16:12:37.642Z,25.10
2018-05-09T16:15:03.900Z,25.10
2018-05-09T16:17:30.110Z,25.10
2018-05-09T16:19:56.319Z,25.10
2018-05-09T16:22:22.565Z,25.10
2018-05-09T16:24:48.806Z,25.10
2018-05-09T16:27:15.048Z,25.10
2018-05-09T16:29:41.296Z,25.10
2018-05-09T16:32:07.576Z,25.00
2018-05-09T16:34:33.845Z,24.90
2018-05-09T16:37:00.803Z,24.40
2018-05-09T16:39:27.772Z,24.30
2018-05-09T16:41:54.044Z,24.20
2018-05-09T16:44:20.226Z,24.10
2018-05-09T16:46:46.428Z,24.00
2018-05-09T16:49:12.709Z,23.90
2018-05-09T16:51:39.009Z,23.80
2018-05-09T16:54:05.261Z,23.70
2018-05-09T16:56:31.491Z,23.60
2018-05-09T16:58:57.744Z,23.60
2018-05-09T17:01:24.024Z,23.50
2018-05-09T17:03:50.234Z,23.40
2018-05-09T17:06:17.200Z,23.20
2018-05-09T17:08:43.476Z,23.20
2018-05-09T17:11:09.692Z,23.10
2018-05-09T17:13:35.928Z,23.10
2018-05-09T17:16:02.187Z,23.10
2018-05-09T17:18:29.117Z,22.90
2018-05-09T17:20:55.324Z,22.80
2018-05-09T17:23:21.534Z,22.80
2018-05-09T17:25:47.812Z,22.70
2018-05-09T17:28:14.020Z,22.50
2018-05-09T17:30:40.249Z,22.40
2018-05-09T17:33:06.460Z,22.30
2018-05-09T17:35:32.690Z,22.20
2018-05-09T17:37:58.879Z,22.10
2018-05-09T17:40:25.076Z,22.00
2018-05-09T17:42:51.269Z,21.90
2018-05-09T17:45:17.516Z,21.90
2018-05-09T17:47:43.773Z,21.80
2018-05-09T17:50:10.085Z,21.70
2018-05-09T17:52:36.426Z,21.70
2018-05-09T17:55:03.387Z,21.70
2018-05-09T17:57:30.332Z,21.60
2018-05-09T17:59:57.318Z,21.60
2018-05-09T18:02:23.572Z,21.60
2018-05-09T18:04:49.824Z,21.60
2018-05-09T18:07:16.877Z,21.60
2018-05-09T18:09:43.840Z,21.00
2018-05-09T18:12:10.051Z,20.90
2018-05-09T18:14:37.043Z,20.80
2018-05-09T18:17:03.302Z,20.80
2018-05-09T18:19:29.554Z,21.00
2018-05-09T18:21:56.533Z,21.30
2018-05-09T18:24:22.755Z,21.30
2018-05-09T18:26:49.025Z,21.40
2018-05-09T18:29:15.299Z,21.50
2018-05-09T18:31:41.551Z,21.50
2018-05-09T18:34:07.798Z,21.60
2018-05-09T18:36:33.974Z,21.60
2018-05-09T18:39:00.927Z,21.60
2018-05-09T18:41:27.153Z,21.60
2018-05-09T18:43:53.372Z,21.60
2018-05-09T18:46:19.616Z,21.60
2018-05-09T18:48:45.865Z,21.60
2018-05-09T18:51:12.111Z,21.60
2018-05-09T18:53:38.317Z,21.60
2018-05-09T18:56:14.919Z,21.60
2018-05-09T18:58:41.144Z,21.50
2018-05-09T19:01:07.345Z,21.50
2018-05-09T19:03:43.710Z,21.40
2018-05-09T19:06:09.946Z,21.30
2018-05-09T19:08:36.180Z,21.30
2018-05-09T19:11:02.414Z,21.20
2018-05-09T19:13:28.670Z,21.20
2018-05-09T19:15:54.894Z,21.20
2018-05-09T19:18:21.114Z,21.10
2018-05-09T19:20:47.361Z,21.10
2018-05-09T19:23:13.689Z,21.00
2018-05-09T19:25:39.877Z,20.90
2018-05-09T19:28:06.142Z,21.00
2018-05-09T19:30:32.397Z,20.90
2018-05-09T19:32:58.658Z,20.80
2018-05-09T19:35:24.899Z,20.80
2018-05-09T19:37:51.090Z,20.70
2018-05-09T19:40:17.363Z,20.70
2018-05-09T19:42:43.561Z,20.60
2018-05-09T19:45:09.808Z,20.60
2018-05-09T19:47:36.068Z,20.50
2018-05-09T19:50:02.329Z,20.40
2018-05-09T19:52:28.533Z,20.40
2018-05-09T19:54:55.555Z,20.30
2018-05-09T19:57:21.898Z,20.20
2018-05-09T19:59:48.136Z,20.20
2018-05-09T20:02:15.063Z,20.20
2018-05-09T20:04:41.314Z,20.10
2018-05-09T20:07:08.271Z,20.10
2018-05-09T20:09:34.543Z,20.00
2018-05-09T20:12:00.794Z,20.00
2018-05-09T20:14:28.245Z,19.90
2018-05-09T20:16:54.597Z,19.90
2018-05-09T20:19:21.623Z,19.80
2018-05-09T20:21:47.893Z,19.70
2018-05-09T20:24:14.148Z,19.70
2018-05-09T20:26:40.417Z,19.70
2018-05-09T20:29:06.641Z,19.60
2018-05-09T20:31:51.377Z,19.50
2018-05-09T20:34:17.577Z,19.50
2018-05-09T20:36:43.790Z,19.50
2018-05-09T20:39:10.095Z,19.40
2018-05-09T20:41:36.318Z,19.30
2018-05-09T20:44:02.570Z,19.20
2018-05-09T20:46:29.665Z,19.00
2018-05-09T20:48:55.915Z,19.00
2018-05-09T20:51:30.208Z,18.90
2018-05-09T20:53:56.519Z,18.90
2018-05-09T20:56:23.836Z,18.90
2018-05-09T20:58:50.915Z,18.80
2018-05-09T21:01:29.395Z,18.80
2018-05-09T21:03:56.413Z,18.80
2018-05-09T21:06:22.663Z,18.70
2018-05-09T21:08:48.827Z,18.80
2018-05-09T21:11:15.084Z,18.60
2018-05-09T21:13:41.322Z,18.50
2018-05-09T21:16:07.530Z,18.60
2018-05-09T21:18:33.750Z,18.60
2018-05-09T21:20:59.995Z,18.60
2018-05-09T21:23:26.280Z,18.50
2018-05-09T21:25:53.287Z,18.40
2018-05-09T21:28:19.477Z,18.40
2018-05-09T21:30:45.704Z,18.10
2018-05-09T21:33:11.905Z,18.10
2018-05-09T21:35:38.879Z,17.50
2018-05-09T21:38:05.106Z,17.40
2018-05-09T21:40:31.311Z,17.30
2018-05-09T21:42:58.249Z,17.60
2018-05-09T21:45:25.252Z,17.50
2018-05-09T21:47:51.483Z,17.40
2018-05-09T21:50:17.733Z,17.70
2018-05-09T21:52:43.981Z,17.80
2018-05-09T21:55:10.929Z,18.00
2018-05-09T21:57:37.912Z,18.00
2018-05-09T22:00:04.116Z,17.90
2018-05-09T22:02:30.368Z,18.00
2018-05-09T22:04:56.635Z,18.00
2018-05-09T22:07:22.882Z,18.10
2018-05-09T22:09:49.092Z,18.10
2018-05-09T22:12:15.296Z,18.10
2018-05-09T22:14:41.472Z,18.10
2018-05-09T22:17:08.401Z,18.10
2018-05-09T22:19:34.622Z,18.00
2018-05-09T22:22:00.856Z,18.00
2018-05-09T22:24:27.106Z,18.00
2018-05-09T22:26:54.050Z,17.90
2018-05-09T22:29:21.048Z,17.90
2018-05-09T22:31:47.999Z,17.80
2018-05-09T22:34:14.260Z,17.80
2018-05-09T22:36:40.523Z,17.80
2018-05-09T22:39:06.739Z,17.80
2018-05-09T22:41:32.988Z,17.70
2018-05-09T22:43:59.152Z,17.60
2018-05-09T22:46:25.390Z,17.30
2018-05-09T22:48:52.396Z,17.00
2018-05-09T22:51:18.614Z,17.00
2018-05-09T22:53:44.836Z,17.10
2018-05-09T22:56:11.068Z,16.80
2018-05-09T22:58:37.346Z,16.40
2018-05-09T23:01:03.558Z,16.00
2018-05-09T23:03:29.785Z,16.00
2018-05-09T23:05:56.008Z,16.10
2018-05-09T23:08:22.241Z,16.20
2018-05-09T23:10:48.485Z,16.40
2018-05-09T23:13:14.745Z,16.50
2018-05-09T23:15:41.016Z,16.60
2018-05-09T23:18:07.202Z,16.70
2018-05-09T23:20:33.399Z,16.80
2018-05-09T23:22:59.633Z,16.70
2018-05-09T23:25:25.884Z,16.50
2018-05-09T23:27:52.826Z,16.70
2018-05-09T23:30:20.143Z,16.60
2018-05-09T23:32:46.352Z,16.80
2018-05-09T23:35:12.613Z,16.90
2018-05-09T23:37:38.850Z,16.90
2018-05-09T23:40:05.068Z,17.00
2018-05-09T23:42:31.291Z,17.00
2018-05-09T23:44:57.486Z,17.00
2018-05-09T23:47:23.711Z,17.00
2018-05-09T23:49:49.959Z,17.00
2018-05-09T23:52:16.175Z,17.00
2018-05-09T23:54:42.436Z,16.90
2018-05-09T23:57:09.409Z,17.00
2018-05-09T23:59:36.376Z,17.00
